Terminal Aerodrome Forecast
Issued by NWS

Home | Current Version | Previous Version | Text Only | Print | Product List | Glossary On
Versions: 1 2 3 4 5 6 7 8 9 10 11 12 13 14 15 16 17 18 19 20 21 22 23 24 25 26 27 28 29
000
FTUS45 KBOU 271440 CCA
TAFBJC
TAF COR
KBJC 271440Z 2715/2812 33007KT P6SM FEW004 SCT007 SCT020
     FM271600 36005KT P6SM FEW008 SCT025
     FM271700 03007KT P6SM FEW060 SCT120
     FM272100 09006KT P6SM VCTS SCT050CB BKN100
      TEMPO 2722/2802 VRB20G30KT TSRA BKN050CB OVC080
     FM280300 24007KT P6SM VCSH SCT060 BKN100
     FM280500 32006KT P6SM SCT080 SCT120=

USA.gov is the U.S. government's official web portal to all federal, state and local government web resources and services.